Atmore, Alabama
Current Conditions -  °F | °C
As of 7:56 AM on Tuesday 21 Oct 2014 (Local Time) from KNSE Reporting Station
Few Clouds Few Clouds  
Wind Chill: 57°   Ceiling: Unl
Heat Index: 57°   Visibility: 10mi
Dew Point: 50°   Wind: 6mph
Humidity: 77%   Direction: 360°N
Pressure: 30.05"   Gusts: NA
Location:  31.03°N, 87.49°W
Report Text: KNSE 211256Z 36005KT 10SM FEW250 14/10 A3005 RMK AO2 SLP161 T01390100 $
Loading
Personal Weather Stations






























Interactive Weather Map
Tropical Storm Tracking
New forecast layout! Learn more

10-Day Weather Forecast

Advertisements
Track Severe Weather on mobile